Time;durP1;ratioP1;P1;durP2;ratioP2;P2;SDS_P1;SDS_P2;PMS_P1;PMS_P2;Temp;Humidity;BMP_temperature;BMP_pressure;BME280_temperature;BME280_humidity;BME280_pressure;Samples;Min_cycle;Max_cycle;Signal;HPM_P1;HPM_P2
2022/07/03 00:02:09;;;;;;;6.85;3.45;;;;;;;18.53;65.86;101822.94;5033325;28;20055;-56
2022/07/03 00:04:45;;;;;;;8.05;4.70;;;;;;;18.50;65.91;101813.38;5033751;28;20129;-56
2022/07/03 00:07:12;;;;;;;8.95;5.30;;;;;;;18.47;65.96;101820.47;5033293;28;20111;-57
2022/07/03 00:09:42;;;;;;;8.40;6.20;;;;;;;18.43;65.93;101818.81;5033275;28;20061;-57
2022/07/03 00:12:12;;;;;;;8.05;4.95;;;;;;;18.41;66.04;101825.84;5033389;28;20103;-56
2022/07/03 00:14:50;;;;;;;8.73;4.93;;;;;;;18.39;66.05;101822.41;5033139;28;20088;-56
2022/07/03 00:17:27;;;;;;;6.93;4.72;;;;;;;18.37;65.92;101818.97;5033157;28;20064;-57
2022/07/03 00:19:58;;;;;;;9.93;4.88;;;;;;;18.35;66.01;101810.25;5033122;28;20470;-54
2022/07/03 00:22:27;;;;;;;9.40;4.95;;;;;;;18.31;66.02;101813.84;5033238;28;20046;-57
2022/07/03 00:25:00;;;;;;;10.50;6.50;;;;;;;18.28;66.12;101812.16;5033000;28;20054;-57
2022/07/03 00:27:29;;;;;;;8.23;5.70;;;;;;;18.25;66.23;101814.88;5033090;28;20057;-57
2022/07/03 00:30:00;;;;;;;9.82;4.80;;;;;;;18.23;66.26;101814.91;5033019;28;20538;-57
2022/07/03 00:32:30;;;;;;;8.90;4.85;;;;;;;18.20;66.14;101807.06;5032915;28;20379;-57
2022/07/03 00:35:06;;;;;;;6.45;4.25;;;;;;;18.18;66.21;101808.84;5033381;28;20060;-55
2022/07/03 00:37:37;;;;;;;7.82;4.35;;;;;;;18.15;66.47;101808.94;5032920;28;20064;-56
2022/07/03 00:40:07;;;;;;;7.43;4.38;;;;;;;18.12;66.42;101803.75;5033309;28;20352;-56
2022/07/03 00:42:41;;;;;;;6.28;3.42;;;;;;;18.08;66.41;101807.34;5033001;28;20049;-56
2022/07/03 00:45:10;;;;;;;6.73;3.67;;;;;;;18.05;66.67;101801.31;5033240;28;20053;-57
2022/07/03 00:47:45;;;;;;;7.15;3.67;;;;;;;18.04;66.77;101799.59;5030104;28;20061;-56
2022/07/03 00:50:15;;;;;;;;;;;;;;;17.99;67.00;101797.06;5033441;28;20057;-55
2022/07/03 00:52:51;;;;;;;5.53;3.38;;;;;;;17.99;66.73;101802.31;5036607;28;20361;-56
2022/07/03 00:55:28;;;;;;;8.13;3.50;;;;;;;17.98;66.58;101788.31;5036543;28;20053;-57
2022/07/03 00:58:04;;;;;;;7.15;4.15;;;;;;;17.97;66.51;101791.00;5036501;28;20533;-56
2022/07/03 01:00:35;;;;;;;8.43;3.65;;;;;;;17.96;66.51;101786.63;5036629;28;20045;-57
2022/07/03 01:03:10;;;;;;;6.72;4.05;;;;;;;17.93;66.54;101789.34;5036238;28;20379;-56
2022/07/03 01:05:47;;;;;;;7.22;3.40;;;;;;;17.93;66.48;101798.06;5036483;28;20532;-55
2022/07/03 01:08:25;;;;;;;6.10;3.45;;;;;;;17.91;66.66;101788.50;5035631;28;20107;-53
2022/07/03 01:11:03;;;;;;;5.30;3.08;;;;;;;17.91;66.76;101793.75;5036581;28;20061;-57
2022/07/03 01:13:54;;;;;;;5.55;3.70;;;;;;;17.88;66.73;101793.81;5036140;28;20057;-56
2022/07/03 01:16:25;;;;;;;6.53;2.40;;;;;;;17.85;66.94;101793.88;5036415;28;20057;-57
2022/07/03 01:19:08;;;;;;;5.55;2.58;;;;;;;17.80;66.88;101791.38;5035939;28;20053;-54
2022/07/03 01:21:42;;;;;;;4.55;2.40;;;;;;;17.78;67.41;101792.28;5036054;28;20524;-55
2022/07/03 01:24:54;;;;;;;6.55;2.38;;;;;;;17.77;67.22;101793.19;5035846;28;20473;-56
2022/07/03 01:27:38;;;;;;;7.05;2.47;;;;;;;17.75;67.56;101787.97;5033937;28;20054;-56
2022/07/03 01:30:15;;;;;;;6.07;2.17;;;;;;;17.76;68.07;101783.59;5035966;28;20513;-57
2022/07/03 01:32:45;;;;;;;4.70;2.25;;;;;;;17.77;68.41;101780.94;5035984;28;20053;-56
2022/07/03 01:35:22;;;;;;;5.70;2.20;;;;;;;17.81;68.50;101776.50;5034939;28;20061;-57
2022/07/03 01:37:59;;;;;;;5.85;2.30;;;;;;;17.83;68.79;101774.69;5035700;28;20049;-56
2022/07/03 01:40:33;;;;;;;4.15;2.10;;;;;;;17.85;69.11;101773.75;5035567;28;20463;-57
2022/07/03 01:43:14;;;;;;;4.33;2.10;;;;;;;17.89;69.10;101769.31;5036069;28;20077;-55
2022/07/03 01:45:52;;;;;;;5.38;2.20;;;;;;;17.93;69.11;101773.59;5035315;28;20311;-57
2022/07/03 01:48:23;;;;;;;6.20;2.75;;;;;;;17.95;69.34;101771.78;5035194;28;20417;-57
2022/07/03 01:50:59;;;;;;;2.58;1.85;;;;;;;17.97;69.40;101772.63;5033186;28;20049;-58
2022/07/03 01:53:30;;;;;;;3.30;2.10;;;;;;;17.97;69.69;101767.38;5015378;28;20471;-57
2022/07/03 01:56:09;;;;;;;3.90;2.00;;;;;;;17.99;69.36;101770.81;5015093;28;20057;-57
2022/07/03 01:58:41;;;;;;;4.10;1.92;;;;;;;17.99;69.50;101760.34;5015384;28;20061;-57
2022/07/03 02:01:25;;;;;;;3.67;1.95;;;;;;;18.01;69.66;101752.44;5015189;28;20052;-56
2022/07/03 02:04:10;;;;;;;3.72;1.85;;;;;;;18.02;69.64;101744.53;5014399;28;20071;-55
2022/07/03 02:06:44;;;;;;;5.80;1.90;;;;;;;18.01;69.58;101750.66;5015093;28;20112;-57
2022/07/03 02:09:20;;;;;;;3.80;1.55;;;;;;;18.02;69.46;101749.78;5014665;28;20509;-53
2022/07/03 02:11:48;;;;;;;2.85;2.00;;;;;;;18.02;69.31;101747.16;5013986;28;20070;-56
2022/07/03 02:14:18;;;;;;;4.88;2.53;;;;;;;17.99;68.93;101752.47;5015213;28;20053;-56
2022/07/03 02:17:05;;;;;;;7.18;2.70;;;;;;;17.96;68.88;101749.91;5015262;28;20065;-57
2022/07/03 02:19:45;;;;;;;5.40;2.50;;;;;;;17.94;68.77;101754.34;5015167;28;20057;-56
2022/07/03 02:22:13;;;;;;;3.92;2.67;;;;;;;17.90;68.65;101752.69;5015160;28;20049;-57
2022/07/03 02:24:47;;;;;;;4.55;2.60;;;;;;;17.89;68.53;101750.94;5014655;28;20092;-57
2022/07/03 02:27:19;;;;;;;7.72;2.85;;;;;;;17.88;68.52;101746.59;5014994;28;20076;-57
2022/07/03 02:30:05;;;;;;;6.15;2.30;;;;;;;17.84;68.36;101744.94;5015220;28;20061;-56
2022/07/03 02:32:42;;;;;;;5.95;2.40;;;;;;;17.82;68.55;101746.75;5014977;28;20064;-57
2022/07/03 02:35:12;;;;;;;4.95;2.10;;;;;;;17.80;68.32;101745.91;5015262;28;20061;-56
2022/07/03 02:37:46;;;;;;;4.10;2.70;;;;;;;17.79;68.50;101736.31;5018749;28;20053;-56
2022/07/03 02:40:25;;;;;;;4.72;2.80;;;;;;;17.76;68.39;101742.50;5034670;28;20061;-56
2022/07/03 02:43:17;;;;;;;4.25;2.60;;;;;;;17.75;68.29;101745.16;5034723;28;20076;-56
2022/07/03 02:46:48;;;;;;;4.18;2.45;;;;;;;17.70;68.12;101747.88;5033951;28;20107;-55
2022/07/03 02:48:59;;;;;;;4.35;2.80;;;;;;;17.65;68.27;101745.28;5034176;28;20061;-57
2022/07/03 02:51:38;;;;;;;;;;;;;;;17.60;68.35;101756.78;5035044;28;20045;-56
2022/07/03 02:54:21;;;;;;;4.05;2.08;;;;;;;17.64;68.52;101755.81;5034173;28;20357;-57
2022/07/03 02:57:01;;;;;;;4.88;1.98;;;;;;;17.71;68.92;101749.59;5034110;28;20363;-57
2022/07/03 02:59:40;;;;;;;3.08;1.88;;;;;;;17.79;69.10;101746.81;5034065;28;20063;-57
2022/07/03 03:02:42;;;;;;;6.45;2.15;;;;;;;17.86;69.15;101746.63;5033620;28;20125;-57
2022/07/03 03:05:14;;;;;;;4.57;2.13;;;;;;;17.93;69.05;101739.50;5034297;28;20049;-57
2022/07/03 03:08:04;;;;;;;4.60;2.20;;;;;;;18.00;68.44;101743.69;5034432;28;20074;-57
2022/07/03 03:10:35;;;;;;;4.13;2.92;;;;;;;18.05;68.24;101749.69;5034214;28;20045;-57
2022/07/03 03:13:12;;;;;;;3.97;2.38;;;;;;;18.11;68.12;101739.06;5034390;28;20061;-55
2022/07/03 03:15:51;;;;;;;4.03;2.67;;;;;;;18.18;67.89;101745.88;5033208;28;20045;-57
2022/07/03 03:18:30;;;;;;;5.30;2.80;;;;;;;18.26;67.84;101743.97;5033666;28;20061;-57
2022/07/03 03:21:00;;;;;;;5.55;2.15;;;;;;;18.36;67.92;101734.09;5033820;28;20445;-58
2022/07/03 03:23:41;;;;;;;6.55;2.83;;;;;;;18.47;67.78;101732.06;5034198;28;20145;-57
2022/07/03 03:26:15;;;;;;;5.60;2.92;;;;;;;18.60;67.58;101743.09;5033824;28;20140;-58
2022/07/03 03:28:43;;;;;;;5.63;2.78;;;;;;;18.71;67.27;101740.22;5034009;28;20057;-58
2022/07/03 03:31:12;;;;;;;6.07;2.70;;;;;;;18.81;67.10;101741.75;5033830;28;20049;-55
2022/07/03 03:33:43;;;;;;;4.07;2.63;;;;;;;18.92;66.82;101735.28;5033090;28;20057;-54
2022/07/03 03:36:11;;;;;;;5.55;2.60;;;;;;;19.05;66.42;101732.31;5033361;28;20058;-53
2022/07/03 03:38:40;;;;;;;4.40;2.83;;;;;;;19.14;66.22;101735.56;5033412;28;20061;-53
2022/07/03 03:41:10;;;;;;;6.82;3.08;;;;;;;19.25;66.05;101737.91;5032948;28;20057;-53
2022/07/03 03:43:37;;;;;;;4.18;3.05;;;;;;;19.39;65.85;101735.75;5033364;28;20049;-54
2022/07/03 03:46:06;;;;;;;5.80;3.08;;;;;;;19.53;65.54;101744.13;5033312;28;20049;-55
2022/07/03 03:48:33;;;;;;;7.25;2.95;;;;;;;19.71;65.02;101736.56;5033364;28;20136;-53
2022/07/03 03:51:07;;;;;;;4.07;2.97;;;;;;;19.84;64.45;101732.69;5032999;28;20064;-57
2022/07/03 03:53:34;;;;;;;4.25;2.70;;;;;;;19.97;64.37;101733.16;5032956;28;20060;-57
2022/07/03 03:56:02;;;;;;;8.85;2.95;;;;;;;20.14;64.17;101731.69;5032644;28;20045;-58
2022/07/03 03:58:33;;;;;;;5.03;2.55;;;;;;;20.33;63.88;101720.59;5033197;28;20067;-54
2022/07/03 04:01:04;;;;;;;6.30;3.15;;;;;;;20.49;63.46;101724.47;5033172;28;20058;-58
2022/07/03 04:03:41;;;;;;;4.15;2.40;;;;;;;20.66;63.02;101719.47;5032778;28;20397;-55
2022/07/03 04:06:24;;;;;;;3.65;2.50;;;;;;;20.88;62.65;101718.75;5033089;28;20378;-57
2022/07/03 04:08:54;;;;;;;4.45;2.42;;;;;;;21.08;62.29;101718.88;5033012;28;20442;-57
2022/07/03 04:11:25;;;;;;;5.25;1.83;;;;;;;21.30;61.88;101721.59;5033319;28;20094;-58
2022/07/03 04:13:53;;;;;;;4.18;1.88;;;;;;;21.54;61.28;101720.69;5033316;28;20107;-54
2022/07/03 04:16:21;;;;;;;3.25;1.45;;;;;;;21.76;60.57;101722.50;5033328;28;20084;-56
2022/07/03 04:18:49;;;;;;;4.35;1.92;;;;;;;21.99;60.11;101723.31;5032718;28;20061;-58
2022/07/03 04:21:25;;;;;;;3.42;1.75;;;;;;;22.22;59.75;101714.47;5032942;28;20045;-57
2022/07/03 04:23:55;;;;;;;5.28;2.08;;;;;;;22.46;58.99;101720.53;5033432;28;20049;-58
2022/07/03 04:26:21;;;;;;;3.97;1.70;;;;;;;22.68;58.31;101718.69;5035017;28;20064;-58
2022/07/03 04:31:34;;;;;;;3.95;2.10;;;;;;;23.11;57.30;101719.50;5037161;28;20067;-57
2022/07/03 04:34:04;;;;;;;3.78;1.77;;;;;;;23.33;56.54;101721.16;5036949;28;20485;-56
2022/07/03 04:36:34;;;;;;;3.67;1.80;;;;;;;23.53;55.98;101713.16;5036943;28;20097;-58
2022/07/03 04:39:03;;;;;;;3.70;1.88;;;;;;;23.70;55.59;101715.03;5036940;28;20053;-57
2022/07/03 04:41:34;;;;;;;3.38;2.20;;;;;;;23.90;55.04;101723.75;5036012;28;20084;-57
2022/07/03 04:44:01;;;;;;;6.13;2.95;;;;;;;24.07;54.31;101724.72;5036974;28;20065;-58
2022/07/03 04:46:29;;;;;;;3.85;2.33;;;;;;;24.23;53.82;101717.75;5035847;28;20079;-58
2022/07/03 04:48:57;;;;;;;4.10;2.15;;;;;;;24.37;53.47;101717.94;5036973;28;20049;-57
2022/07/03 04:51:26;;;;;;;3.67;2.63;;;;;;;24.51;52.95;101710.16;5036342;28;20393;-57
2022/07/03 04:53:57;;;;;;;5.00;2.53;;;;;;;24.65;52.30;101713.91;5036705;28;20049;-56
2022/07/03 04:56:27;;;;;;;6.30;2.47;;;;;;;24.79;52.26;101714.88;5036818;28;20073;-57
2022/07/03 04:58:57;;;;;;;4.78;2.17;;;;;;;24.90;51.55;101711.66;5036706;28;20046;-57
2022/07/03 05:01:38;;;;;;;7.05;2.03;;;;;;;25.00;51.14;101718.25;5036595;28;20053;-57
2022/07/03 05:04:06;;;;;;;4.13;1.63;;;;;;;25.11;51.03;101715.03;5036709;28;20140;-57
2022/07/03 05:06:36;;;;;;;3.15;1.70;;;;;;;25.26;50.44;101718.66;5036428;28;20049;-58
2022/07/03 05:09:13;;;;;;;2.50;1.10;;;;;;;25.37;49.96;101716.25;5036433;28;20053;-58
2022/07/03 05:11:50;;;;;;;3.50;1.70;;;;;;;25.51;49.71;101719.03;5036349;28;20143;-57
2022/07/03 05:14:19;;;;;;;3.40;1.50;;;;;;;25.66;49.55;101718.22;5036075;28;20476;-57
2022/07/03 05:16:46;;;;;;;2.47;1.50;;;;;;;25.81;48.70;101720.94;5035141;28;20049;-58
2022/07/03 05:19:23;;;;;;;2.83;1.40;;;;;;;25.94;48.33;101713.97;5035403;28;20049;-58
2022/07/03 05:21:52;;;;;;;5.60;1.80;;;;;;;26.08;47.63;101725.56;5036205;28;20053;-58
2022/07/03 05:24:26;;;;;;;3.30;1.52;;;;;;;26.18;47.08;101720.56;5035972;28;20382;-58
2022/07/03 05:26:57;;;;;;;3.83;1.17;;;;;;;26.31;46.93;101705.59;5036012;28;20057;-58
2022/07/03 05:29:26;;;;;;;3.38;1.60;;;;;;;26.41;46.24;101701.47;5035839;28;20087;-57
2022/07/03 05:31:56;;;;;;;2.38;1.75;;;;;;;26.53;46.34;101705.19;5036043;28;20063;-57
2022/07/03 05:34:25;;;;;;;2.97;1.13;;;;;;;26.63;46.11;101713.50;5036282;28;20049;-58
2022/07/03 05:36:53;;;;;;;3.88;1.20;;;;;;;26.74;45.68;101711.06;5035337;28;20053;-58
2022/07/03 05:39:35;;;;;;;4.65;1.52;;;;;;;26.86;45.31;101706.78;5034999;28;20045;-58
2022/07/03 05:42:07;;;;;;;2.58;1.23;;;;;;;26.98;45.44;101701.59;5035655;28;20176;-57
2022/07/03 05:47:18;;;;;;;2.50;1.17;;;;;;;27.20;44.64;101706.47;5035890;28;20064;-58
2022/07/03 05:49:45;;;;;;;2.95;1.23;;;;;;;27.31;44.06;101709.28;5035846;28;20045;-57
2022/07/03 05:52:17;;;;;;;2.70;1.10;;;;;;;27.40;43.85;101707.84;5035225;28;20049;-57
2022/07/03 05:54:49;;;;;;;1.92;1.10;;;;;;;27.49;43.60;101701.94;5035825;28;20049;-57
2022/07/03 05:57:23;;;;;;;2.15;1.20;;;;;;;27.56;43.32;101703.25;5035597;28;20057;-56
2022/07/03 05:59:51;;;;;;;3.60;1.30;;;;;;;27.64;43.25;101701.00;5035553;28;20144;-57
2022/07/03 06:02:18;;;;;;;3.17;1.23;;;;;;;27.72;42.93;101708.50;5034795;28;20050;-57
2022/07/03 06:04:46;;;;;;;2.38;0.80;;;;;;;27.83;42.35;101705.13;5035523;28;20084;-58
2022/07/03 06:07:16;;;;;;;3.15;1.25;;;;;;;27.94;41.82;101697.28;5035494;28;20053;-58
2022/07/03 06:09:47;;;;;;;4.13;1.02;;;;;;;28.05;41.79;101700.09;5035069;28;20378;-57
2022/07/03 06:12:16;;;;;;;5.40;1.20;;;;;;;28.16;41.53;101705.59;5035319;28;20053;-57
2022/07/03 06:14:45;;;;;;;2.60;1.30;;;;;;;28.23;41.30;101698.91;5035168;28;20541;-58
2022/07/03 06:17:14;;;;;;;1.73;1.05;;;;;;;28.31;41.28;101695.72;5034666;28;20053;-58
2022/07/03 06:19:45;;;;;;;3.05;1.15;;;;;;;28.44;41.11;101693.06;5035098;28;20049;-58
2022/07/03 06:22:15;;;;;;;1.40;0.90;;;;;;;28.54;40.98;101696.81;5034794;28;20489;-58
2022/07/03 06:24:44;;;;;;;3.22;0.93;;;;;;;28.59;40.75;101689.34;5035182;28;20115;-57
2022/07/03 06:27:19;;;;;;;3.92;1.10;;;;;;;28.65;40.37;101694.28;5034742;28;20486;-58
2022/07/03 06:29:55;;;;;;;2.97;1.00;;;;;;;28.72;40.34;101694.72;5034919;28;20107;-58
2022/07/03 06:32:23;;;;;;;2.85;1.10;;;;;;;28.77;40.21;101689.91;5034911;28;20139;-58
2022/07/03 06:34:53;;;;;;;2.85;1.10;;;;;;;28.77;39.91;101685.41;5035038;28;20104;-58
2022/07/03 06:37:23;;;;;;;4.30;1.20;;;;;;;28.79;39.94;101686.16;5034071;28;20536;-57
2022/07/03 06:39:51;;;;;;;2.17;1.05;;;;;;;28.84;40.05;101680.53;5034375;28;20458;-53
2022/07/03 06:42:20;;;;;;;3.53;1.17;;;;;;;28.88;39.98;101685.56;5034459;28;20230;-54
2022/07/03 06:44:48;;;;;;;2.22;1.00;;;;;;;28.92;40.00;101690.66;5034362;28;20053;-54
2022/07/03 06:47:15;;;;;;;3.33;1.13;;;;;;;28.89;40.14;101687.25;5033848;28;20140;-58
2022/07/03 06:49:44;;;;;;;4.40;1.20;;;;;;;28.98;40.00;101684.91;5034105;28;20061;-54
2022/07/03 06:52:14;;;;;;;2.63;1.33;;;;;;;29.09;40.25;101688.50;5034231;28;20049;-58
2022/07/03 06:54:43;;;;;;;4.70;1.38;;;;;;;29.24;40.05;101686.59;5034148;28;20045;-58
2022/07/03 06:57:10;;;;;;;4.05;1.40;;;;;;;29.32;39.76;101686.88;5034117;28;20060;-58
2022/07/03 06:59:41;;;;;;;2.85;1.15;;;;;;;29.48;39.42;101683.97;5034372;28;20363;-55
2022/07/03 07:02:09;;;;;;;4.28;1.30;;;;;;;29.61;39.09;101683.94;5034238;28;20123;-56
2022/07/03 07:04:35;;;;;;;1.45;1.00;;;;;;;29.64;38.96;101683.69;5033935;28;20050;-54
2022/07/03 07:07:03;;;;;;;1.90;0.95;;;;;;;29.73;38.75;101677.72;5034095;28;20050;-55
2022/07/03 07:09:42;;;;;;;2.70;1.58;;;;;;;29.85;38.82;101682.13;5034167;28;20064;-56
2022/07/03 07:12:15;;;;;;;2.58;1.05;;;;;;;30.00;38.68;101683.66;5033920;28;20068;-55
2022/07/03 07:14:52;;;;;;;2.22;1.10;;;;;;;29.96;38.51;101678.66;5033937;28;20060;-58
2022/07/03 07:17:26;;;;;;;3.80;1.10;;;;;;;30.05;38.16;101668.16;5033729;28;20072;-58
2022/07/03 07:19:55;;;;;;;3.40;1.13;;;;;;;30.14;37.47;101671.94;5033757;28;20385;-58
2022/07/03 07:22:26;;;;;;;1.63;1.00;;;;;;;30.03;37.26;101674.59;5034146;28;20049;-58
2022/07/03 07:24:56;;;;;;;3.38;1.00;;;;;;;30.06;36.95;101669.00;5034148;28;20107;-58
2022/07/03 07:27:27;;;;;;;3.40;0.80;;;;;;;30.03;36.18;101674.59;5033945;28;20049;-58
2022/07/03 07:29:56;;;;;;;2.70;1.25;;;;;;;30.08;35.81;101673.25;5033922;28;20085;-57
2022/07/03 07:32:24;;;;;;;3.88;0.90;;;;;;;30.18;35.79;101673.44;5033577;28;20053;-58
2022/07/03 07:34:54;;;;;;;2.35;0.98;;;;;;;30.35;35.35;101667.66;5033917;28;20041;-58
2022/07/03 07:37:23;;;;;;;1.77;0.85;;;;;;;30.51;35.25;101664.63;5033665;28;20087;-57
2022/07/03 07:39:54;;;;;;;4.25;1.20;;;;;;;30.57;35.26;101669.50;5033430;28;20488;-57
2022/07/03 07:42:24;;;;;;;1.67;1.00;;;;;;;30.60;34.97;101663.09;5033665;28;20049;-58
2022/07/03 07:45:01;;;;;;;1.27;0.93;;;;;;;30.65;34.04;101664.44;5033773;28;20059;-57
2022/07/03 07:47:31;;;;;;;1.20;0.70;;;;;;;30.70;34.25;101658.75;5033681;28;20050;-57
2022/07/03 07:49:59;;;;;;;2.78;1.02;;;;;;;30.80;34.31;101669.59;5033584;28;20473;-58
2022/07/03 07:52:28;;;;;;;3.00;1.15;;;;;;;30.93;33.87;101664.97;5033472;28;20393;-58
2022/07/03 07:57:42;;;;;;;2.28;0.80;;;;;;;31.30;32.88;101655.72;5033154;28;20458;-58
2022/07/03 08:00:14;;;;;;;1.50;0.95;;;;;;;31.53;32.51;101663.69;5034629;28;20374;-57
2022/07/03 08:05:40;;;;;;;4.50;1.17;;;;;;;31.77;32.17;101661.72;5039887;28;20355;-58
2022/07/03 08:08:11;;;;;;;2.03;1.10;;;;;;;31.82;31.91;101659.50;5039926;28;20056;-57
2022/07/03 08:10:41;;;;;;;3.90;0.80;;;;;;;31.95;31.75;101660.16;5040273;28;20053;-54
2022/07/03 08:13:17;;;;;;;1.50;0.93;;;;;;;32.04;31.53;101663.91;5039650;28;20046;-54
2022/07/03 08:15:48;;;;;;;3.30;0.90;;;;;;;32.10;31.49;101658.00;5040133;28;20068;-54
2022/07/03 08:18:19;;;;;;;2.53;0.82;;;;;;;32.27;31.01;101656.63;5039549;28;20065;-58
2022/07/03 08:20:49;;;;;;;2.55;0.88;;;;;;;32.44;30.82;101645.28;5040089;28;20174;-58
2022/07/03 08:23:19;;;;;;;3.38;1.00;;;;;;;32.58;30.48;101642.25;5039830;28;20526;-58
2022/07/03 08:25:50;;;;;;;1.83;0.90;;;;;;;32.80;30.39;101635.06;5040087;28;20068;-58
2022/07/03 08:28:20;;;;;;;2.42;1.15;;;;;;;33.04;29.94;101637.41;5039708;28;20558;-58
2022/07/03 08:30:50;;;;;;;1.98;0.93;;;;;;;33.13;29.58;101637.44;5040176;28;20087;-58
2022/07/03 08:33:23;;;;;;;2.60;0.88;;;;;;;33.12;29.79;101627.66;5039658;28;20056;-58
2022/07/03 08:35:50;;;;;;;2.42;0.90;;;;;;;33.15;29.86;101639.97;5039470;28;20068;-58
2022/07/03 08:38:19;;;;;;;1.88;0.90;;;;;;;33.24;29.49;101642.69;5039811;28;20064;-58
2022/07/03 08:40:49;;;;;;;2.05;0.90;;;;;;;33.32;29.30;101649.25;5039646;28;20131;-57
2022/07/03 08:43:22;;;;;;;1.10;0.80;;;;;;;33.40;28.94;101641.34;5039567;28;20478;-58
2022/07/03 08:45:48;;;;;;;3.38;0.70;;;;;;;33.44;28.75;101645.47;5039813;28;20053;-58
2022/07/03 08:48:21;;;;;;;2.25;0.75;;;;;;;33.57;28.42;101637.97;5039408;28;20064;-58
2022/07/03 08:53:30;;;;;;;2.20;0.82;;;;;;;33.61;28.23;101644.75;5039474;28;20053;-58
2022/07/03 08:56:06;;;;;;;1.77;0.80;;;;;;;33.72;27.97;101633.03;5039454;28;20053;-58
2022/07/03 08:58:37;;;;;;;2.30;1.00;;;;;;;34.25;27.30;101630.75;5039374;28;20434;-58
2022/07/03 09:01:06;;;;;;;1.95;0.85;;;;;;;34.79;26.66;101631.88;5039823;28;20107;-58
2022/07/03 09:03:42;;;;;;;1.98;0.93;;;;;;;35.01;25.35;101628.84;5039183;28;20522;-58
2022/07/03 09:06:12;;;;;;;1.23;0.80;;;;;;;34.44;26.29;101630.75;5039710;28;20057;-58
2022/07/03 09:08:49;;;;;;;1.23;0.60;;;;;;;34.16;26.06;101627.06;5039522;28;20050;-58
2022/07/03 09:11:25;;;;;;;2.85;0.55;;;;;;;34.03;25.67;101621.16;5039779;28;20115;-58
2022/07/03 09:13:55;;;;;;;0.82;0.60;;;;;;;33.92;25.73;101618.63;5036355;28;20058;-58
2022/07/03 09:16:25;;;;;;;1.48;0.70;;;;;;;33.81;26.58;101622.25;5035444;28;20053;-58
2022/07/03 09:18:55;;;;;;;2.25;0.77;;;;;;;33.74;27.10;101620.28;5035258;28;20355;-58
2022/07/03 09:21:25;;;;;;;0.90;0.40;;;;;;;33.76;27.18;101623.69;5036221;28;20063;-58
2022/07/03 09:23:55;;;;;;;2.60;0.80;;;;;;;33.79;27.15;101624.25;5036241;28;20060;-58
2022/07/03 09:26:27;;;;;;;1.58;0.60;;;;;;;33.79;27.08;101608.09;5036291;28;20053;-58
2022/07/03 09:28:56;;;;;;;1.13;0.65;;;;;;;33.75;26.86;101617.44;5036053;28;20053;-58
2022/07/03 09:31:27;;;;;;;1.60;0.70;;;;;;;33.65;26.55;101611.22;5036325;28;20046;-58
2022/07/03 09:34:02;;;;;;;7.82;0.73;;;;;;;33.50;26.10;101607.28;5036079;28;20095;-58
2022/07/03 09:36:46;;;;;;;0.50;0.40;;;;;;;33.26;25.83;101611.16;5036113;28;20061;-58
2022/07/03 09:39:23;;;;;;;1.15;0.40;;;;;;;33.08;26.26;101602.06;5035561;28;20077;-58
2022/07/03 09:41:58;;;;;;;1.15;0.60;;;;;;;32.92;26.73;101601.75;5035776;28;20053;-58
2022/07/03 09:44:34;;;;;;;2.15;0.52;;;;;;;32.78;26.41;101604.78;5035524;28;20057;-58
2022/07/03 09:47:18;;;;;;;2.53;0.77;;;;;;;32.64;26.84;101601.47;5035417;28;20060;-54
2022/07/03 09:49:54;;;;;;;1.05;0.60;;;;;;;32.45;26.91;101595.16;5035224;28;20053;-54
2022/07/03 09:52:34;;;;;;;2.38;0.80;;;;;;;32.24;26.92;101589.78;5035394;28;20060;-56
2022/07/03 09:55:14;;;;;;;2.83;0.70;;;;;;;32.17;27.40;101583.25;5028872;28;20045;-58
2022/07/03 09:57:42;;;;;;;2.08;0.40;;;;;;;32.05;27.55;101584.31;5034067;28;20045;-54
2022/07/03 10:00:14;;;;;;;0.57;0.30;;;;;;;32.06;26.36;101580.63;5034627;28;20049;-54
2022/07/03 10:03:04;;;;;;;0.57;0.40;;;;;;;32.06;26.71;101581.50;5026983;28;20065;-54
2022/07/03 10:05:34;;;;;;;1.00;0.57;;;;;;;32.05;27.61;101577.09;5021206;28;20060;-54
2022/07/03 10:08:04;;;;;;;1.38;0.60;;;;;;;31.93;27.97;101565.59;5025779;28;20406;-56
2022/07/03 10:10:34;;;;;;;1.98;0.70;;;;;;;31.76;28.16;101562.66;5024497;28;20052;-58
2022/07/03 10:13:12;;;;;;;2.63;1.13;;;;;;;31.72;28.07;101564.72;5026218;28;20131;-58
2022/07/03 10:15:49;;;;;;;2.45;0.60;;;;;;;31.59;27.96;101561.34;5025698;28;20045;-58
2022/07/03 10:18:23;;;;;;;1.33;0.60;;;;;;;31.36;28.00;101561.44;5028642;28;20145;-58
2022/07/03 10:21:01;;;;;;;1.50;0.50;;;;;;;31.16;28.74;101558.69;5025719;28;20053;-58
2022/07/03 10:23:32;;;;;;;2.25;0.50;;;;;;;31.06;29.21;101559.41;5014958;28;20054;-58
2022/07/03 10:26:01;;;;;;;2.13;0.60;;;;;;;30.97;29.01;101553.97;5020623;28;20482;-58
2022/07/03 10:28:32;;;;;;;2.10;0.52;;;;;;;30.70;29.16;101541.84;5021130;28;20061;-58
2022/07/03 10:31:03;;;;;;;1.33;0.60;;;;;;;30.56;29.46;101544.72;5024776;28;20084;-58
2022/07/03 10:33:39;;;;;;;3.60;0.63;;;;;;;30.58;29.25;101548.13;5034867;28;20053;-57
2022/07/03 10:36:20;;;;;;;1.42;0.40;;;;;;;30.38;29.79;101547.06;5034543;28;20061;-58
2022/07/03 10:38:57;;;;;;;1.70;0.55;;;;;;;30.18;30.17;101544.22;5027645;28;20381;-58
2022/07/03 10:47:10;;;;;;;1.55;0.55;;;;;;;29.85;30.71;101551.19;5025952;28;20048;-55
2022/07/03 10:50:03;;;;;;;0.90;0.50;;;;;;;29.81;30.53;101547.03;5026919;28;20529;-58
2022/07/03 10:52:45;;;;;;;0.75;0.47;;;;;;;29.84;31.07;101550.31;5032479;28;20132;-58
2022/07/03 10:55:23;;;;;;;1.30;0.60;;;;;;;29.91;30.74;101547.19;5034416;28;20045;-58
2022/07/03 10:58:08;;;;;;;0.98;0.47;;;;;;;29.89;30.55;101552.66;5034350;28;20053;-58
2022/07/03 11:00:54;;;;;;;;;;;;;;;29.81;30.00;101542.53;5025468;28;20053;-57
2022/07/03 11:03:55;;;;;;;0.85;0.40;;;;;;;29.85;30.35;101540.50;5028272;28;19952;-58
2022/07/03 11:07:09;;;;;;;3.08;0.70;;;;;;;29.82;30.47;101538.06;5028037;28;20402;-58
2022/07/03 11:09:49;;;;;;;1.45;0.55;;;;;;;29.62;31.06;101528.00;5033857;28;20483;-56
2022/07/03 11:12:17;;;;;;;1.23;0.60;;;;;;;29.55;30.85;101529.44;5034434;28;20053;-58
2022/07/03 11:14:49;;;;;;;1.27;0.60;;;;;;;29.39;31.34;101525.22;5033425;28;20134;-58
2022/07/03 11:17:21;;;;;;;1.20;0.60;;;;;;;29.24;31.02;101525.53;5027239;28;20132;-58
2022/07/03 11:22:42;;;;;;;0.70;0.40;;;;;;;28.94;31.41;101528.63;5020251;28;20054;-58
2022/07/03 11:25:17;;;;;;;1.55;0.35;;;;;;;28.97;31.82;101526.59;5022862;28;20053;-57
2022/07/03 11:27:47;;;;;;;2.15;0.47;;;;;;;29.06;31.19;101527.72;5022681;28;20451;-58
2022/07/03 11:30:17;;;;;;;1.00;0.50;;;;;;;29.09;31.75;101532.84;5033439;28;20053;-57
2022/07/03 11:33:00;;;;;;;1.15;0.50;;;;;;;29.22;31.57;101514.97;5033877;28;20092;-58
2022/07/03 11:35:59;;;;;;;0.98;0.52;;;;;;;29.41;31.28;101522.44;5028754;28;20430;-58
2022/07/03 11:38:30;;;;;;;1.70;0.68;;;;;;;29.39;31.07;101521.72;5026149;28;20065;-58
2022/07/03 11:41:11;;;;;;;2.28;0.50;;;;;;;29.24;31.54;101515.72;5033713;28;20080;-57
2022/07/03 11:43:46;;;;;;;0.90;0.50;;;;;;;29.15;31.84;101511.06;5033538;28;20447;-58
2022/07/03 11:46:18;;;;;;;1.92;0.60;;;;;;;29.09;31.99;101516.81;5033876;28;20144;-58
2022/07/03 11:48:47;;;;;;;0.50;0.50;;;;;;;29.01;32.39;101520.06;5033396;28;20207;-57
2022/07/03 11:51:19;;;;;;;1.17;0.40;;;;;;;28.89;32.29;101516.47;5033536;28;20112;-58
2022/07/03 11:53:47;;;;;;;0.93;0.50;;;;;;;28.68;32.50;101501.16;5035257;28;20085;-58
2022/07/03 11:56:30;;;;;;;0.95;0.50;;;;;;;28.58;33.00;101496.44;5033402;28;20501;-57
2022/07/03 11:58:59;;;;;;;1.90;0.85;;;;;;;28.54;33.35;101502.13;5033371;28;20049;-58
2022/07/03 12:01:34;;;;;;;1.85;0.50;;;;;;;28.51;32.80;101489.00;5033341;28;20057;-58
2022/07/03 12:04:08;;;;;;;1.52;0.57;;;;;;;28.47;32.40;101491.03;5032894;28;20099;-58
2022/07/03 12:06:39;;;;;;;1.02;0.40;;;;;;;28.45;32.98;101489.44;5032188;28;20049;-58
2022/07/03 12:09:16;;;;;;;1.92;0.57;;;;;;;28.49;32.98;101494.44;5033495;28;20168;-58
2022/07/03 12:12:00;;;;;;;2.28;0.70;;;;;;;28.40;33.18;101488.94;5032919;28;20053;-58
2022/07/03 12:14:54;;;;;;;2.13;0.95;;;;;;;28.32;33.42;101484.13;5031706;28;20051;-58
2022/07/03 12:17:24;;;;;;;1.52;0.57;;;;;;;28.28;33.85;101488.84;5019510;28;20058;-58
2022/07/03 12:19:53;;;;;;;1.85;0.40;;;;;;;28.25;33.72;101473.06;5030106;28;20061;-58